Airfield :
LOGIN :

Register | Disclaimer

   EN    FR    IT 

 










Legend :    VFR   Marginal VFR   IFR   Intensive IFR   Very Intensive IFR
Visi :
Ceiling :
>= 8 km
>= 3000ft
5 to 8 km
1000 to 3000 ft
1500m to 5 km
500 to 1000 ft
800 to 1500m
200 to 500 ft
< 800m
< 200 ft
Symbols :   Thunderstorms  Fog  Heavy snow  Heavy precipitations  Wind > 20 kt
SIGMETs :     Misc.  Thunderstorms  Icing  Turbulence  Mountain Waves  Volcanic Ashes







- Airport Elevation : 465 ft
- IATA code : LEJ


EDDP - Leipzig Halle

CURRENT METAR :
  • 200150Z 01006KT 320V050 9999 VCSH NSC 18/14 Q1009 NOSIG

EXPIRED METARs :
  • 200120Z 33004KT 290V010 CAVOK 19/14 Q1009 TEMPO 31015G30KT TSRA
  • 200050Z 31006KT CAVOK 19/14 Q1009 TEMPO 31015G30KT TSRA
  • 200020Z 17005KT CAVOK 19/13 Q1008 NOSIG
  • 192350Z 18005KT CAVOK 19/13 Q1008 NOSIG
  • 192320Z 16005KT 140V200 CAVOK 19/13 Q1008 NOSIG

TAF TAF EDDP
Valid from the 20 at 00:00 until the 21 at 00:00 UTC


192300Z 2000/2024 19004KT CAVOK
BECMG 2005/2007 27011KT
TEMPO 2009/2018 SHRA SCT030CB
PROB30
TEMPO 2012/2018 25015G25KT TSRA
BECMG 2017/2019 27005KT
TEMPO 2018/2022 TSRA SCT014 SCT020CB
No reported NOTAMs for that airfield.
2 SIGMETs reported for the München FIR (EDMM) :
 
Embedded thunderstorms
EDMM SIGMET 2 VALID 200130/200300 EDZF
EDMM MUNCHEN FIR EMBD TS FCST WI N5001 E01035 - N4907 E01203 - N4826 E01133 - N4907 E01023 - N4925 E01048 - N5001 E01035 TOP FL380 MOV NNE NC=
Embedded thunderstorms
EDMM SIGMET 1 VALID 200003/200130 EDZF
EDMM MUNCHEN FIR EMBD TS FCST WI N4923 E01102 - N4826 E01156 - N4737 E01139 - N4827 E00937 - N4846 E00946 - N4923 E01102 TOP FL380 MOV NNE NC=



MET'MAP, your aeronautical weather chart ! - Copyright ORBIFLY December 2007 - Disclaimer

ORBIFLY MET'MAP TEAM :

Programming & Development : Alexandra Zaïnal
Concept & Development : Baudouin d'Aumeries
Co-Development & Prog : Marc-Olivier Méhu
Technical & hardware support : Manuel Goepfert

Contact : metmap@orbifly.com




SOURCES & CREDITS :

   NOAA